Time;durP1;ratioP1;P1;durP2;ratioP2;P2;SDS_P1;SDS_P2;PMS_P1;PMS_P2;Temp;Humidity;BMP_temperature;BMP_pressure;BME280_temperature;BME280_humidity;BME280_pressure;Samples;Min_cycle;Max_cycle;Signal;HPM_P1;HPM_P2
2024/04/10 00:00:14;;;;;;;14.52;3.47;;;13.30;82.50;;;;;;5468913;26;20009;-60
2024/04/10 00:02:40;;;;;;;13.18;3.72;;;13.20;82.50;;;;;;5469074;26;19994;-60
2024/04/10 00:05:06;;;;;;;21.35;3.42;;;13.20;82.60;;;;;;5468725;26;20474;-60
2024/04/10 00:07:32;;;;;;;22.00;3.05;;;13.20;82.60;;;;;;5468875;26;19994;-60
2024/04/10 00:09:58;;;;;;;15.02;3.55;;;13.20;82.70;;;;;;5468556;26;20002;-60
2024/04/10 00:12:23;;;;;;;14.60;3.10;;;13.20;82.80;;;;;;5468830;26;19994;-61
2024/04/10 00:14:49;;;;;;;12.00;3.00;;;13.20;82.80;;;;;;5500693;26;20000;-61
2024/04/10 00:17:14;;;;;;;21.45;3.65;;;13.10;82.80;;;;;;5468514;26;20002;-60
2024/04/10 00:19:40;;;;;;;16.00;3.38;;;13.10;82.80;;;;;;5500987;26;19990;-60
2024/04/10 00:22:06;;;;;;;19.05;2.78;;;13.10;82.80;;;;;;5468981;26;20043;-60
2024/04/10 00:24:32;;;;;;;13.88;3.05;;;13.10;82.80;;;;;;5501043;26;20005;-60
2024/04/10 00:26:57;;;;;;;21.25;3.05;;;13.10;82.90;;;;;;5500729;26;20006;-60
2024/04/10 00:29:23;;;;;;;19.23;2.70;;;13.10;83.00;;;;;;5468642;26;20042;-60
2024/04/10 00:31:51;;;;;;;12.60;2.40;;;13.10;83.00;;;;;;5500720;26;20006;-60
2024/04/10 00:34:17;;;;;;;14.85;2.35;;;13.10;83.10;;;;;;5500923;26;20009;-60
2024/04/10 00:36:43;;;;;;;14.80;2.80;;;13.00;83.10;;;;;;5467986;26;19998;-60
2024/04/10 00:39:09;;;;;;;12.95;2.88;;;13.10;83.10;;;;;;5438404;26;20009;-60
2024/04/10 00:41:35;;;;;;;18.92;2.60;;;13.10;83.20;;;;;;5468398;26;20244;-60
2024/04/10 00:44:00;;;;;;;15.70;3.28;;;13.00;83.20;;;;;;5500522;26;20014;-60
2024/04/10 00:46:27;;;;;;;10.25;2.45;;;13.00;83.40;;;;;;5467947;26;19998;-60
2024/04/10 00:48:52;;;;;;;12.80;3.33;;;13.00;83.50;;;;;;5498672;26;20006;-58
2024/04/10 00:51:19;;;;;;;11.93;3.13;;;12.90;83.50;;;;;;5467948;26;20517;-58
2024/04/10 00:53:45;;;;;;;10.77;2.22;;;12.90;83.50;;;;;;5437888;26;20346;-58
2024/04/10 00:56:10;;;;;;;12.20;2.60;;;12.90;83.60;;;;;;5467884;26;20064;-58
2024/04/10 00:58:37;;;;;;;10.85;2.10;;;12.90;83.60;;;;;;5438027;26;19994;-58
2024/04/10 01:01:02;;;;;;;7.30;2.28;;;12.90;83.80;;;;;;5468031;26;20009;-58
2024/04/10 01:03:29;;;;;;;12.80;2.13;;;12.90;83.90;;;;;;5467809;26;19990;-58
2024/04/10 01:06:02;;;;;;;7.65;1.83;;;12.90;84.00;;;;;;5467707;26;20012;-58
2024/04/10 01:08:28;;;;;;;9.57;1.92;;;12.80;84.00;;;;;;5468078;26;20015;-58
2024/04/10 01:10:54;;;;;;;11.68;1.80;;;12.80;84.00;;;;;;5437680;26;20050;-58
2024/04/10 01:13:19;;;;;;;8.00;1.90;;;12.80;83.90;;;;;;5498200;26;20028;-58
2024/04/10 01:15:45;;;;;;;10.90;2.05;;;12.80;83.90;;;;;;5467483;26;19994;-58
2024/04/10 01:18:11;;;;;;;11.18;1.90;;;12.80;83.90;;;;;;5467606;26;20005;-58
2024/04/10 01:20:37;;;;;;;7.53;1.65;;;12.80;84.00;;;;;;5437463;26;20002;-58
2024/04/10 01:23:03;;;;;;;5.93;1.98;;;12.80;84.00;;;;;;5467876;26;19994;-58
2024/04/10 01:25:29;;;;;;;5.93;1.90;;;12.80;84.20;;;;;;5467458;26;20074;-58
2024/04/10 01:27:54;;;;;;;6.80;2.10;;;12.80;84.20;;;;;;5499877;26;20028;-58
2024/04/10 01:30:20;;;;;;;8.38;1.60;;;12.80;84.20;;;;;;5499742;26;19998;-58
2024/04/10 01:32:46;;;;;;;9.93;1.70;;;12.70;84.20;;;;;;5499918;26;20001;-58
2024/04/10 01:35:11;;;;;;;9.13;1.70;;;12.70;84.30;;;;;;5499500;26;20079;-58
2024/04/10 01:37:37;;;;;;;9.43;1.83;;;12.70;84.30;;;;;;5467255;26;20001;-57
2024/04/10 01:40:03;;;;;;;9.20;1.98;;;12.80;84.40;;;;;;5499774;26;19994;-57
2024/04/10 01:42:29;;;;;;;7.45;1.60;;;12.70;84.20;;;;;;5467628;26;19998;-58
2024/04/10 01:44:55;;;;;;;4.72;1.75;;;12.70;84.20;;;;;;5499547;26;20009;-58
2024/04/10 01:47:20;;;;;;;8.85;2.10;;;12.70;84.30;;;;;;5467365;26;19998;-58
2024/04/10 01:49:46;;;;;;;7.47;1.73;;;12.70;84.40;;;;;;5499444;26;19998;-58
2024/04/10 01:52:12;;;;;;;8.10;1.77;;;12.70;84.40;;;;;;5467352;26;20386;-58
2024/04/10 01:54:37;;;;;;;3.50;1.30;;;12.70;84.40;;;;;;5467222;26;20462;-58
2024/04/10 01:57:03;;;;;;;4.85;1.35;;;12.70;84.40;;;;;;5466946;26;20074;-58
2024/04/10 01:59:29;;;;;;;6.68;1.83;;;12.70;84.40;;;;;;5466940;26;19994;-58
2024/04/10 02:01:54;;;;;;;5.80;1.45;;;12.70;84.40;;;;;;5467139;26;20070;-58
2024/04/10 02:04:20;;;;;;;5.60;1.67;;;12.70;84.50;;;;;;5467137;26;20005;-58
2024/04/10 02:06:45;;;;;;;5.93;1.20;;;12.60;84.50;;;;;;5498966;26;20070;-58
2024/04/10 02:09:11;;;;;;;6.22;1.35;;;12.60;84.60;;;;;;5499215;26;20009;-58
2024/04/10 02:11:39;;;;;;;7.65;1.67;;;12.60;84.70;;;;;;5498997;26;20002;-58
2024/04/10 02:14:05;;;;;;;3.20;1.35;;;12.60;84.70;;;;;;5499255;26;19994;-58
2024/04/10 02:16:31;;;;;;;5.72;1.38;;;12.60;84.80;;;;;;5469570;26;20013;-58
2024/04/10 02:18:57;;;;;;;3.72;1.05;;;12.60;84.80;;;;;;5440167;26;19994;-58
2024/04/10 02:21:23;;;;;;;7.75;1.55;;;12.60;84.80;;;;;;5502535;26;19998;-58
2024/04/10 02:23:49;;;;;;;6.65;1.50;;;12.60;84.80;;;;;;5470078;26;20456;-58
2024/04/10 02:26:15;;;;;;;6.18;1.15;;;12.60;84.80;;;;;;5470062;26;20007;-58
2024/04/10 02:28:41;;;;;;;4.82;1.05;;;12.60;84.90;;;;;;5489908;25;19990;-58
2024/04/10 02:31:06;;;;;;;5.57;1.58;;;12.60;84.90;;;;;;5539297;26;20080;-58
2024/04/10 02:33:38;;;;;;;6.00;1.42;;;12.60;85.00;;;;;;5475988;26;20070;-58
2024/04/10 02:36:05;;;;;;;6.32;1.63;;;12.60;85.00;;;;;;5471735;26;19998;-58
2024/04/10 02:38:31;;;;;;;4.28;1.10;;;12.50;85.00;;;;;;5520514;25;19989;-58
2024/04/10 02:40:57;;;;;;;2.28;0.85;;;12.50;85.10;;;;;;5476059;26;19993;-58
2024/04/10 02:43:22;;;;;;;3.42;1.10;;;12.50;85.20;;;;;;5506469;26;20005;-58
2024/04/10 02:45:58;;;;;;;3.35;0.90;;;12.50;85.20;;;;;;5504965;25;19993;-58
2024/04/10 02:48:23;;;;;;;4.03;1.13;;;12.50;85.20;;;;;;5532655;25;20008;-58
2024/04/10 02:50:49;;;;;;;3.08;0.95;;;12.40;85.20;;;;;;5493106;26;19990;-58
2024/04/10 02:53:15;;;;;;;5.80;1.10;;;12.40;85.20;;;;;;5500092;26;19997;-58
2024/04/10 02:55:44;;;;;;;2.22;1.20;;;12.40;85.20;;;;;;5475822;26;20053;-58
2024/04/10 02:58:10;;;;;;;3.78;0.88;;;12.50;85.20;;;;;;5469027;26;19990;-58
2024/04/10 03:00:43;;;;;;;4.53;1.20;;;12.40;85.10;;;;;;5502094;26;19990;-58
2024/04/10 03:03:09;;;;;;;3.10;1.20;;;12.50;85.20;;;;;;5500393;26;20005;-58
2024/04/10 03:05:35;;;;;;;4.22;1.05;;;12.40;85.20;;;;;;5469362;26;19994;-58
2024/04/10 03:08:00;;;;;;;3.83;0.95;;;12.40;85.20;;;;;;5501692;26;20034;-58
2024/04/10 03:10:26;;;;;;;2.97;0.95;;;12.40;85.20;;;;;;5502238;26;20001;-58
2024/04/10 03:12:51;;;;;;;3.63;0.80;;;12.40;85.20;;;;;;5469714;26;20013;-58
2024/04/10 03:15:17;;;;;;;3.33;0.90;;;12.40;85.30;;;;;;5501721;26;20002;-58
2024/04/10 03:17:46;;;;;;;3.35;0.70;;;12.40;85.20;;;;;;5500233;26;20398;-58
2024/04/10 03:20:12;;;;;;;3.63;0.70;;;12.30;85.20;;;;;;5470339;26;20031;-58
2024/04/10 03:22:38;;;;;;;2.45;0.82;;;12.40;85.30;;;;;;5501964;26;19994;-58
2024/04/10 03:25:04;;;;;;;4.32;1.23;;;12.30;85.30;;;;;;5501557;26;20014;-58
2024/04/10 03:27:30;;;;;;;3.22;0.88;;;12.40;85.30;;;;;;5437847;26;19998;-58
2024/04/10 03:29:56;;;;;;;1.98;0.70;;;12.40;85.20;;;;;;5501530;26;19998;-58
2024/04/10 03:32:21;;;;;;;1.95;0.70;;;12.30;85.20;;;;;;5439252;26;20048;-58
2024/04/10 03:34:47;;;;;;;2.63;0.88;;;12.30;85.20;;;;;;5501496;26;20339;-58
2024/04/10 03:37:13;;;;;;;3.90;1.02;;;12.30;85.30;;;;;;5469238;26;19994;-58
2024/04/10 03:39:40;;;;;;;4.22;1.05;;;12.30;85.30;;;;;;5499553;26;19990;-58
2024/04/10 03:42:06;;;;;;;1.27;0.60;;;12.30;85.40;;;;;;5499760;26;20041;-58
2024/04/10 03:44:34;;;;;;;2.33;0.73;;;12.30;85.30;;;;;;5469295;26;20004;-58
2024/04/10 03:46:59;;;;;;;3.30;0.70;;;12.30;85.30;;;;;;5469495;26;19998;-58
2024/04/10 03:49:25;;;;;;;3.22;0.85;;;12.30;85.30;;;;;;5501458;26;19990;-58
2024/04/10 03:51:51;;;;;;;2.70;0.73;;;12.30;85.30;;;;;;5501306;26;20002;-58
2024/04/10 03:54:16;;;;;;;1.65;0.77;;;12.20;85.30;;;;;;5501437;26;20001;-58
2024/04/10 03:56:42;;;;;;;4.50;0.75;;;12.20;85.30;;;;;;5501391;26;19994;-59
2024/04/10 03:59:08;;;;;;;3.25;0.90;;;12.30;85.40;;;;;;5499396;26;20113;-58
2024/04/10 04:01:33;;;;;;;1.35;0.55;;;12.20;85.40;;;;;;5499050;26;20333;-58
2024/04/10 04:04:03;;;;;;;1.83;0.60;;;12.20;85.50;;;;;;5468787;26;19994;-58
2024/04/10 04:06:28;;;;;;;2.47;0.95;;;12.20;85.60;;;;;;5501149;26;20015;-58
2024/04/10 04:08:54;;;;;;;2.03;0.82;;;12.20;85.60;;;;;;5501252;26;20005;-58
2024/04/10 04:11:20;;;;;;;2.03;0.70;;;12.20;85.70;;;;;;5500907;26;19990;-58
2024/04/10 04:13:45;;;;;;;3.50;0.68;;;12.20;85.70;;;;;;5501000;26;20330;-58
2024/04/10 04:16:11;;;;;;;3.25;0.65;;;12.20;85.70;;;;;;5468562;26;19987;-57
2024/04/10 04:18:37;;;;;;;3.05;1.08;;;12.20;85.70;;;;;;5501067;26;20445;-57
2024/04/10 04:21:03;;;;;;;3.83;0.85;;;12.20;85.70;;;;;;5501037;26;20005;-58
2024/04/10 04:23:29;;;;;;;2.63;0.70;;;12.20;85.70;;;;;;5468468;26;20005;-60
2024/04/10 04:25:55;;;;;;;2.83;0.73;;;12.20;85.80;;;;;;5498757;26;19990;-60
2024/04/10 04:28:21;;;;;;;12.88;1.60;;;12.20;85.80;;;;;;5500603;26;20033;-60
2024/04/10 04:30:50;;;;;;;3.45;0.95;;;12.20;85.90;;;;;;5468686;26;19990;-60
2024/04/10 04:33:16;;;;;;;3.33;0.88;;;12.20;86.00;;;;;;5438195;26;20012;-60
2024/04/10 04:35:42;;;;;;;4.90;0.90;;;12.20;86.00;;;;;;5498818;26;20105;-60
2024/04/10 04:38:08;;;;;;;11.35;1.67;;;12.30;86.00;;;;;;5467590;26;20017;-60
2024/04/10 04:40:33;;;;;;;11.10;1.73;;;12.20;86.10;;;;;;5500611;26;20014;-60
2024/04/10 04:42:59;;;;;;;23.83;2.35;;;12.20;86.10;;;;;;5468297;26;20029;-60
2024/04/10 04:45:26;;;;;;;14.38;2.42;;;12.30;86.10;;;;;;5468047;26;20001;-60
2024/04/10 04:47:51;;;;;;;10.07;1.75;;;12.30;86.20;;;;;;5468148;26;19994;-60
2024/04/10 04:50:17;;;;;;;11.18;2.08;;;12.30;86.10;;;;;;5437969;26;20004;-60
2024/04/10 04:52:43;;;;;;;12.93;1.70;;;12.30;86.10;;;;;;5500407;26;20002;-60
2024/04/10 04:55:09;;;;;;;18.38;2.70;;;12.30;86.10;;;;;;5467907;26;20032;-59
2024/04/10 04:57:35;;;;;;;9.80;1.92;;;12.20;86.10;;;;;;5468043;26;19994;-60
2024/04/10 05:00:11;;;;;;;6.93;1.60;;;12.20;86.30;;;;;;5467978;26;19994;-60
2024/04/10 05:02:43;;;;;;;13.60;2.63;;;12.20;86.30;;;;;;5500272;26;19998;-60
2024/04/10 05:05:26;;;;;;;15.63;2.13;;;12.20;87.00;;;;;;5499788;26;20002;-60
2024/04/10 05:07:52;;;;;;;10.65;1.52;;;12.30;86.50;;;;;;5521178;26;20001;-60
2024/04/10 05:10:18;;;;;;;19.80;2.10;;;12.30;86.30;;;;;;5504282;26;20042;-60
2024/04/10 05:12:44;;;;;;;14.50;1.80;;;12.20;86.40;;;;;;5504327;26;20304;-60
2024/04/10 05:15:13;;;;;;;17.52;2.47;;;12.30;86.50;;;;;;5504190;26;20004;-60
2024/04/10 05:17:39;;;;;;;30.33;3.15;;;12.20;86.50;;;;;;5475608;26;19993;-60
2024/04/10 05:20:08;;;;;;;18.20;3.28;;;12.30;86.60;;;;;;5473878;26;19997;-60
2024/04/10 05:22:34;;;;;;;41.70;6.10;;;12.20;86.50;;;;;;5504974;26;20012;-61
2024/04/10 05:24:59;;;;;;;50.15;7.35;;;12.20;86.70;;;;;;5504037;26;19993;-60
2024/04/10 05:27:26;;;;;;;55.38;6.28;;;12.20;87.10;;;;;;5504370;26;20005;-60
2024/04/10 05:30:09;;;;;;;53.85;6.85;;;12.20;87.00;;;;;;5473863;26;20045;-60
2024/04/10 05:32:35;;;;;;;48.10;7.35;;;12.20;87.40;;;;;;5476529;26;20093;-57
2024/04/10 05:35:01;;;;;;;54.20;6.40;;;12.20;87.40;;;;;;5473471;26;20022;-57
2024/04/10 05:37:27;;;;;;;43.45;5.70;;;12.20;87.40;;;;;;5536506;26;20046;-60
2024/04/10 05:40:06;;;;;;;48.10;6.45;;;12.20;87.40;;;;;;5536355;26;19990;-60
2024/04/10 05:42:37;;;;;;;31.42;6.05;;;12.20;87.20;;;;;;5536562;26;20020;-60
2024/04/10 05:45:04;;;;;;;32.00;4.88;;;12.20;87.30;;;;;;5503241;26;20031;-60
2024/04/10 05:47:33;;;;;;;38.42;4.80;;;12.20;87.20;;;;;;5472888;26;20073;-60
2024/04/10 05:49:58;;;;;;;44.28;5.82;;;12.20;87.30;;;;;;5502241;26;20005;-60
2024/04/10 05:52:24;;;;;;;49.15;6.10;;;12.20;87.20;;;;;;5473568;26;20073;-60
2024/04/10 05:54:50;;;;;;;38.88;6.05;;;12.20;87.40;;;;;;5536259;26;19997;-60
2024/04/10 05:57:15;;;;;;;32.80;4.95;;;12.20;87.30;;;;;;5468634;26;20016;-60
2024/04/10 05:59:41;;;;;;;36.30;6.13;;;12.20;87.40;;;;;;5534329;26;20001;-60
2024/04/10 06:02:07;;;;;;;29.23;4.88;;;12.20;87.30;;;;;;5471808;26;19993;-60
2024/04/10 06:04:32;;;;;;;38.50;5.00;;;12.20;87.20;;;;;;5503479;26;19989;-60
2024/04/10 06:06:58;;;;;;;31.38;5.35;;;12.20;87.20;;;;;;5534390;26;20452;-60
2024/04/10 06:09:23;;;;;;;44.25;5.18;;;12.10;87.10;;;;;;5533853;26;20357;-60
2024/04/10 06:11:49;;;;;;;23.50;4.07;;;12.10;87.00;;;;;;5503268;26;20400;-60
2024/04/10 06:14:15;;;;;;;25.67;4.35;;;12.20;87.10;;;;;;5503243;26;20015;-60
2024/04/10 06:16:40;;;;;;;20.30;4.10;;;12.20;87.10;;;;;;5535791;26;19989;-60
2024/04/10 06:19:06;;;;;;;31.20;4.43;;;12.20;87.00;;;;;;5472829;26;19997;-60
2024/04/10 06:21:33;;;;;;;22.65;4.00;;;12.20;87.00;;;;;;5535217;26;20480;-60
2024/04/10 06:23:58;;;;;;;26.35;4.63;;;12.10;87.00;;;;;;5502992;26;19997;-60
2024/04/10 06:26:24;;;;;;;80.20;8.70;;;12.20;87.00;;;;;;5535526;26;20000;-60
2024/04/10 06:28:50;;;;;;;49.53;6.57;;;12.20;87.10;;;;;;5535540;26;20421;-59
2024/04/10 06:31:15;;;;;;;22.85;4.75;;;12.20;86.90;;;;;;5535346;26;19989;-60
2024/04/10 06:33:41;;;;;;;47.85;6.28;;;12.20;86.90;;;;;;5535280;26;20012;-60
2024/04/10 06:36:07;;;;;;;46.85;6.97;;;12.20;86.80;;;;;;5502480;26;19994;-60
2024/04/10 06:38:33;;;;;;;36.38;6.68;;;12.20;87.10;;;;;;5535204;26;19997;-57
2024/04/10 06:41:03;;;;;;;24.92;4.25;;;12.20;87.10;;;;;;5502606;26;19997;-59
2024/04/10 06:43:29;;;;;;;38.15;5.38;;;12.20;87.10;;;;;;5535244;26;19998;-59
2024/04/10 06:45:57;;;;;;;37.97;5.10;;;12.20;87.00;;;;;;5502180;26;20008;-60
2024/04/10 06:48:24;;;;;;;49.92;7.45;;;12.20;86.90;;;;;;5534952;26;20437;-60
2024/04/10 06:50:54;;;;;;;51.58;7.13;;;12.20;87.10;;;;;;5535037;26;20447;-59
2024/04/10 06:53:20;;;;;;;65.72;8.23;;;12.20;87.00;;;;;;5503229;26;20012;-59
2024/04/10 06:55:54;;;;;;;69.95;9.50;;;12.30;87.10;;;;;;5502452;26;20028;-59
2024/04/10 06:58:19;;;;;;;118.32;12.68;;;12.20;87.10;;;;;;5502654;26;20429;-59
2024/04/10 07:01:03;;;;;;;104.45;11.55;;;12.20;87.40;;;;;;5535059;26;20028;-59
2024/04/10 07:03:31;;;;;;;100.40;11.85;;;12.30;87.40;;;;;;5506025;26;20073;-59
2024/04/10 07:06:05;;;;;;;86.15;10.55;;;12.30;87.50;;;;;;5538423;26;20422;-59
2024/04/10 07:08:32;;;;;;;79.90;10.15;;;12.30;87.30;;;;;;5538784;26;19997;-59
2024/04/10 07:10:57;;;;;;;78.47;9.70;;;12.30;86.90;;;;;;5506135;26;20025;-59
2024/04/10 07:13:26;;;;;;;85.00;10.20;;;12.30;86.90;;;;;;5506036;26;20002;-59
2024/04/10 07:15:59;;;;;;;89.38;10.73;;;12.40;87.00;;;;;;5538381;26;20380;-59
2024/04/10 07:18:26;;;;;;;93.35;9.68;;;12.40;87.10;;;;;;5505720;26;20382;-59
2024/04/10 07:21:01;;;;;;;90.40;9.57;;;12.40;87.00;;;;;;5505841;26;20021;-59
2024/04/10 07:23:27;;;;;;;89.63;10.45;;;12.40;86.80;;;;;;5505562;26;19997;-59
2024/04/10 07:25:53;;;;;;;68.30;8.68;;;12.40;86.80;;;;;;5475348;26;20004;-59
2024/04/10 07:28:19;;;;;;;166.25;16.58;;;12.40;86.80;;;;;;5475215;26;20388;-59
2024/04/10 07:30:48;;;;;;;120.47;14.98;;;12.40;86.80;;;;;;5475296;26;19998;-59
2024/04/10 07:33:14;;;;;;;86.43;10.73;;;12.50;86.90;;;;;;5474977;26;20436;-59
2024/04/10 07:35:40;;;;;;;108.35;12.43;;;12.50;86.70;;;;;;5475500;26;20006;-59
2024/04/10 07:38:05;;;;;;;84.15;11.10;;;12.50;86.80;;;;;;5537784;26;20013;-59
2024/04/10 07:40:31;;;;;;;107.35;11.77;;;12.50;86.70;;;;;;5537850;26;20002;-59
2024/04/10 07:42:56;;;;;;;106.80;12.75;;;12.50;86.80;;;;;;5505215;26;20317;-59
2024/04/10 07:45:22;;;;;;;88.72;10.70;;;12.60;87.00;;;;;;5504955;26;19997;-59
2024/04/10 07:47:48;;;;;;;99.03;11.65;;;12.60;86.80;;;;;;5505043;26;20413;-59
2024/04/10 07:50:14;;;;;;;118.80;12.90;;;12.60;86.70;;;;;;5537895;26;20001;-59
2024/04/10 07:52:40;;;;;;;90.07;11.80;;;12.60;86.50;;;;;;5505405;26;19993;-59
2024/04/10 07:55:06;;;;;;;89.85;12.98;;;12.60;86.50;;;;;;5475247;26;19994;-59
2024/04/10 07:57:32;;;;;;;89.05;11.30;;;12.70;86.30;;;;;;5505160;26;19998;-60
2024/04/10 07:59:58;;;;;;;130.23;14.10;;;12.70;86.30;;;;;;5463678;26;20050;-59
2024/04/10 08:02:23;;;;;;;113.40;13.13;;;12.70;86.40;;;;;;5531521;26;20013;-59
2024/04/10 08:04:49;;;;;;;118.65;13.52;;;12.70;86.50;;;;;;5453022;26;20002;-59
2024/04/10 08:07:15;;;;;;;110.82;14.35;;;12.70;86.60;;;;;;5535744;26;19997;-59
2024/04/10 08:09:41;;;;;;;164.77;15.70;;;12.80;86.70;;;;;;5536467;25;20100;-59
2024/04/10 08:12:07;;;;;;;146.25;17.00;;;12.80;86.70;;;;;;5504021;26;19997;-59
2024/04/10 08:14:32;;;;;;;142.15;16.48;;;12.80;86.90;;;;;;5535035;26;19990;-59
2024/04/10 08:16:58;;;;;;;113.82;14.75;;;12.80;86.90;;;;;;5536723;26;19994;-60
2024/04/10 08:19:23;;;;;;;119.20;13.85;;;12.80;86.80;;;;;;5505493;25;20011;-59
2024/04/10 08:21:49;;;;;;;151.13;16.20;;;12.80;86.70;;;;;;5534494;26;20013;-59
2024/04/10 08:24:14;;;;;;;137.57;16.10;;;12.90;86.90;;;;;;5446065;25;20005;-66
2024/04/10 08:26:40;;;;;;;128.43;15.38;;;12.90;86.90;;;;;;5543709;25;19993;-59
2024/04/10 08:29:09;;;;;;;119.30;14.90;;;12.80;86.80;;;;;;5502570;26;20008;-59
2024/04/10 08:31:34;;;;;;;146.43;16.10;;;12.90;86.70;;;;;;5536052;26;20012;-59
2024/04/10 08:34:00;;;;;;;141.18;15.90;;;12.90;86.60;;;;;;5485879;26;20002;-59
2024/04/10 08:36:27;;;;;;;171.50;18.70;;;12.90;86.50;;;;;;5474296;26;19994;-59
2024/04/10 08:38:53;;;;;;;216.00;23.23;;;12.90;86.50;;;;;;5454211;25;19994;-60
2024/04/10 08:41:20;;;;;;;247.98;26.58;;;12.90;86.80;;;;;;5437928;26;20008;-59
2024/04/10 08:43:51;;;;;;;242.20;26.77;;;13.00;87.10;;;;;;5446327;26;19993;-59
2024/04/10 08:46:18;;;;;;;232.55;26.67;;;13.00;87.20;;;;;;5490793;25;20051;-59
2024/04/10 08:48:44;;;;;;;184.48;21.38;;;13.00;86.90;;;;;;5470805;26;20001;-59
2024/04/10 08:51:14;;;;;;;231.40;26.98;;;13.00;86.90;;;;;;5471172;26;20000;-59
2024/04/10 08:53:41;;;;;;;175.02;20.95;;;13.00;86.90;;;;;;5488549;26;20009;-59
2024/04/10 08:56:07;;;;;;;215.52;21.60;;;13.00;86.60;;;;;;5454998;26;19989;-58
2024/04/10 08:58:33;;;;;;;159.68;20.92;;;13.10;86.10;;;;;;5503267;26;20008;-58
2024/04/10 09:00:59;;;;;;;117.88;17.83;;;13.10;86.10;;;;;;5511723;25;20005;-59
2024/04/10 09:03:25;;;;;;;143.13;17.00;;;13.10;85.80;;;;;;5505940;26;20004;-58
2024/04/10 09:05:50;;;;;;;169.40;20.17;;;13.10;85.70;;;;;;5441779;26;20044;-58
2024/04/10 09:08:16;;;;;;;129.60;17.77;;;13.10;85.60;;;;;;5549214;25;20025;-59
2024/04/10 09:10:42;;;;;;;148.52;16.90;;;13.10;85.50;;;;;;5572755;25;19996;-59
2024/04/10 09:13:12;;;;;;;177.05;22.67;;;13.20;85.30;;;;;;5521016;25;20034;-59
2024/04/10 09:15:37;;;;;;;150.43;17.20;;;13.20;85.30;;;;;;5493040;26;20024;-59
2024/04/10 09:18:04;;;;;;;173.98;20.00;;;13.30;85.00;;;;;;5462622;26;19997;-58
2024/04/10 09:20:31;;;;;;;176.25;19.00;;;13.30;84.80;;;;;;5540444;25;20017;-59
2024/04/10 09:23:06;;;;;;;132.45;16.83;;;13.30;84.80;;;;;;5474064;25;20001;-58
2024/04/10 09:25:32;;;;;;;183.10;21.77;;;13.30;84.60;;;;;;5500936;26;20016;-59
2024/04/10 09:28:03;;;;;;;175.05;18.10;;;13.40;84.70;;;;;;5487233;26;19998;-58
2024/04/10 09:30:32;;;;;;;135.73;16.52;;;13.40;84.40;;;;;;5504295;26;20015;-59
2024/04/10 09:33:02;;;;;;;147.55;17.42;;;13.40;84.20;;;;;;5528362;26;20006;-59
2024/04/10 09:35:28;;;;;;;154.07;17.65;;;13.40;84.10;;;;;;5467609;26;20013;-59
2024/04/10 09:38:01;;;;;;;136.07;18.15;;;13.40;84.10;;;;;;5467191;26;19998;-59
2024/04/10 09:40:28;;;;;;;161.52;20.08;;;13.50;84.10;;;;;;5466965;26;20093;-59
2024/04/10 09:43:04;;;;;;;134.35;15.23;;;13.50;83.80;;;;;;5524421;26;20004;-59
2024/04/10 09:45:37;;;;;;;119.70;15.27;;;13.50;83.60;;;;;;5466707;26;19994;-59
2024/04/10 09:48:08;;;;;;;131.63;16.08;;;13.60;83.40;;;;;;5497222;26;20287;-59
2024/04/10 09:50:36;;;;;;;227.57;23.40;;;13.60;83.40;;;;;;5485981;26;19998;-58
2024/04/10 09:53:03;;;;;;;120.00;15.45;;;13.60;83.30;;;;;;5436669;26;20018;-59
2024/04/10 09:55:32;;;;;;;112.70;13.35;;;13.70;83.20;;;;;;5436832;26;20009;-59
2024/04/10 09:57:58;;;;;;;129.57;14.90;;;13.70;83.00;;;;;;5473309;26;20445;-59
2024/04/10 10:00:24;;;;;;;97.72;14.15;;;13.80;82.70;;;;;;5472751;26;20012;-59
2024/04/10 10:02:49;;;;;;;92.68;15.30;;;13.80;82.60;;;;;;5472514;26;19997;-59
2024/04/10 10:05:21;;;;;;;91.88;13.93;;;13.80;82.60;;;;;;5465200;26;20011;-58
2024/04/10 10:07:47;;;;;;;116.95;14.52;;;13.80;82.50;;;;;;5509831;26;20048;-59
2024/04/10 10:10:13;;;;;;;103.75;13.68;;;13.80;82.50;;;;;;5438212;26;20010;-59
2024/04/10 10:12:38;;;;;;;125.57;13.48;;;13.90;82.20;;;;;;5478609;26;20006;-59
2024/04/10 10:15:11;;;;;;;119.43;13.70;;;13.90;82.00;;;;;;5470154;26;20008;-58
2024/04/10 10:17:40;;;;;;;106.32;13.10;;;13.90;81.70;;;;;;5498034;26;20083;-58
2024/04/10 10:20:19;;;;;;;91.90;12.65;;;13.90;81.50;;;;;;5512536;25;20001;-58
2024/04/10 10:22:59;;;;;;;127.78;15.30;;;14.00;81.30;;;;;;5465575;26;19998;-59
2024/04/10 10:25:26;;;;;;;152.10;17.35;;;14.00;81.30;;;;;;5499601;25;20018;-59
2024/04/10 10:28:02;;;;;;;119.43;13.85;;;14.00;81.20;;;;;;5501080;25;20054;-59
2024/04/10 10:30:27;;;;;;;;;;;14.10;81.10;;;;;;5480174;25;20039;-58
2024/04/10 10:33:01;;;;;;;117.70;13.07;;;14.10;80.90;;;;;;5518341;25;20215;-59
2024/04/10 10:35:27;;;;;;;131.80;15.63;;;14.10;80.80;;;;;;5496637;26;20077;-59
2024/04/10 10:37:52;;;;;;;129.38;13.70;;;14.20;80.80;;;;;;5470188;26;19993;-59
2024/04/10 10:40:19;;;;;;;116.53;14.50;;;14.20;80.70;;;;;;5468854;26;20467;-59
2024/04/10 10:42:46;;;;;;;126.70;16.15;;;14.20;80.20;;;;;;5498494;26;20046;-59
2024/04/10 10:45:11;;;;;;;124.00;12.93;;;14.30;80.00;;;;;;5466543;26;20300;-58
2024/04/10 10:47:40;;;;;;;122.35;14.02;;;14.30;79.80;;;;;;5490193;25;20017;-59
2024/04/10 10:50:06;;;;;;;87.50;12.73;;;14.30;79.70;;;;;;5501253;25;20061;-59
2024/04/10 10:52:32;;;;;;;107.22;15.38;;;14.30;79.70;;;;;;5510305;25;20142;-59
2024/04/10 10:54:57;;;;;;;93.15;13.15;;;14.40;79.50;;;;;;5491841;26;19990;-59
2024/04/10 10:57:23;;;;;;;90.07;12.07;;;14.40;79.20;;;;;;5467412;26;20418;-59
2024/04/10 10:59:49;;;;;;;116.22;12.40;;;14.40;79.10;;;;;;5522193;25;19997;-59
2024/04/10 11:02:15;;;;;;;101.28;11.30;;;14.40;79.10;;;;;;5504042;26;20005;-58
2024/04/10 11:04:41;;;;;;;94.15;12.35;;;14.40;79.10;;;;;;5536072;25;20032;-59
2024/04/10 11:07:07;;;;;;;110.53;13.13;;;14.40;79.10;;;;;;5472944;26;20002;-59
2024/04/10 11:09:32;;;;;;;118.53;12.35;;;14.40;78.90;;;;;;5500920;26;20004;-59
2024/04/10 11:11:58;;;;;;;92.13;12.40;;;14.40;78.70;;;;;;5538366;25;19998;-59
2024/04/10 11:14:24;;;;;;;107.53;12.82;;;14.50;78.80;;;;;;5503852;26;20320;-59
2024/04/10 11:16:59;;;;;;;97.30;11.70;;;14.50;78.60;;;;;;5503412;26;20045;-59
2024/04/10 11:19:25;;;;;;;;;;;14.50;78.10;;;;;;5533762;25;20401;-59
2024/04/10 11:21:51;;;;;;;89.70;11.00;;;14.50;77.80;;;;;;5451341;25;19968;-59
2024/04/10 11:24:16;;;;;;;102.50;12.95;;;14.50;77.60;;;;;;5490107;26;20407;-59
2024/04/10 11:26:42;;;;;;;194.13;18.42;;;14.50;77.60;;;;;;5485708;26;20296;-59
2024/04/10 11:29:07;;;;;;;177.32;17.30;;;14.50;77.30;;;;;;5531913;25;20000;-59
2024/04/10 11:31:33;;;;;;;108.35;13.05;;;14.50;76.90;;;;;;5516080;26;20009;-59
2024/04/10 11:33:59;;;;;;;104.15;12.82;;;14.50;77.40;;;;;;5485886;26;20070;-59
2024/04/10 11:36:25;;;;;;;86.95;10.52;;;14.50;77.40;;;;;;5467277;26;19998;-59
2024/04/10 11:38:50;;;;;;;79.30;11.18;;;14.50;77.50;;;;;;5495925;26;19993;-59
2024/04/10 11:41:17;;;;;;;83.13;11.70;;;14.60;77.50;;;;;;5525498;25;20010;-59
2024/04/10 11:43:44;;;;;;;82.38;9.82;;;14.50;77.40;;;;;;5529415;26;20012;-59
2024/04/10 11:46:10;;;;;;;59.22;10.25;;;14.60;77.20;;;;;;5503706;25;20323;-59
2024/04/10 11:48:37;;;;;;;69.93;9.20;;;14.60;77.00;;;;;;5456279;26;20013;-59
2024/04/10 11:51:03;;;;;;;75.22;10.98;;;14.70;76.70;;;;;;5482802;26;21442;-59
2024/04/10 11:53:30;;;;;;;68.85;8.35;;;14.70;76.40;;;;;;5512556;26;20008;-59
2024/04/10 11:55:56;;;;;;;60.10;8.80;;;14.70;76.30;;;;;;5467505;26;19989;-59
2024/04/10 11:58:22;;;;;;;67.93;9.52;;;14.70;76.30;;;;;;5453348;26;20062;-59
2024/04/10 12:00:47;;;;;;;63.85;8.05;;;14.80;76.10;;;;;;5457899;25;20302;-60
2024/04/10 12:03:13;;;;;;;75.32;9.40;;;14.90;75.90;;;;;;5504914;25;19998;-59
2024/04/10 12:05:38;;;;;;;95.55;13.95;;;14.90;75.40;;;;;;5489319;26;19993;-60
2024/04/10 12:08:04;;;;;;;165.00;15.00;;;14.90;75.50;;;;;;5482659;26;19998;-60
2024/04/10 12:10:32;;;;;;;91.40;11.80;;;15.00;75.40;;;;;;5481820;26;20051;-60
2024/04/10 12:12:58;;;;;;;102.97;11.95;;;15.00;75.20;;;;;;5548241;25;20012;-59
2024/04/10 12:15:24;;;;;;;79.32;9.35;;;15.00;75.00;;;;;;5519479;25;20013;-60
2024/04/10 12:17:51;;;;;;;87.05;11.25;;;15.10;75.00;;;;;;5449590;26;20005;-59
2024/04/10 12:20:17;;;;;;;78.20;9.57;;;15.10;75.00;;;;;;5468206;26;20005;-59
2024/04/10 12:22:42;;;;;;;120.20;12.55;;;15.10;74.90;;;;;;5488502;26;20001;-59
2024/04/10 12:25:09;;;;;;;94.68;11.60;;;15.10;74.70;;;;;;5482469;25;20310;-59
2024/04/10 12:27:34;;;;;;;102.35;11.70;;;15.20;74.40;;;;;;5525854;25;20333;-62
2024/04/10 12:30:00;;;;;;;87.38;10.75;;;15.30;74.20;;;;;;5513729;25;20011;-59